Time;durP1;ratioP1;P1;durP2;ratioP2;P2;SDS_P1;SDS_P2;PMS_P1;PMS_P2;Temp;Humidity;BMP_temperature;BMP_pressure;BME280_temperature;BME280_humidity;BME280_pressure;Samples;Min_cycle;Max_cycle;Signal;HPM_P1;HPM_P2
2023/07/10 00:00:29;;;;;;;;;;;;;;;18.29;94.26;99936.09;4973861;28;1052;-65
2023/07/10 00:02:58;;;;;;;;;;;;;;;18.27;96.33;99946.94;4974205;28;834;-64
2023/07/10 00:05:25;;;;;;;;;;;;;;;18.31;97.05;99944.81;4974185;28;917;-64
2023/07/10 00:07:52;;;;;;;;;;;;;;;18.28;97.78;99939.34;4974187;28;898;-64
2023/07/10 00:10:18;;;;;;;;;;;;;;;18.23;99.00;99939.91;4973997;28;971;-65
2023/07/10 00:12:45;;;;;;;;;;;;;;;18.22;99.46;99935.53;4973995;28;1188;-65
2023/07/10 00:15:15;;;;;;;;;;;;;;;18.20;100.00;99933.22;4974018;28;830;-65
2023/07/10 00:17:45;;;;;;;;;;;;;;;18.21;100.00;99939.59;4974258;28;1910;-65
2023/07/10 00:20:16;;;;;;;;;;;;;;;18.14;100.00;99935.78;4974110;28;883;-65
2023/07/10 00:22:43;;;;;;;;;;;;;;;18.00;100.00;99929.91;4974138;28;851;-65
2023/07/10 00:25:11;;;;;;;;;;;;;;;17.92;100.00;99938.53;4974042;28;823;-64
2023/07/10 00:27:38;;;;;;;;;;;;;;;17.96;100.00;99930.00;4973777;28;843;-65
2023/07/10 00:30:14;;;;;;;;;;;;;;;17.97;100.00;99926.00;4973797;28;938;-64
2023/07/10 00:32:42;;;;;;;;;;;;;;;17.99;100.00;99928.31;4973739;28;819;-65
2023/07/10 00:35:10;;;;;;;;;;;;;;;18.13;100.00;99930.66;4973707;28;866;-64
2023/07/10 00:37:37;;;;;;;;;;;;;;;18.27;100.00;99929.38;4973580;28;1941;-65
2023/07/10 00:40:15;;;;;;;;;;;;;;;18.25;100.00;99924.25;4973945;28;879;-65
2023/07/10 00:42:44;;;;;;;;;;;;;;;18.10;100.00;99923.94;4973539;28;799;-65
2023/07/10 00:45:15;;;;;;;;;;;;;;;18.09;100.00;99929.97;4973570;28;900;-65
2023/07/10 00:47:45;;;;;;;;;;;;;;;18.08;100.00;99928.44;4973565;28;958;-64
2023/07/10 00:50:15;;;;;;;;;;;;;;;18.11;100.00;99933.09;4973449;28;870;-65
2023/07/10 00:52:44;;;;;;;;;;;;;;;18.32;99.55;99926.78;4973595;28;828;-64
2023/07/10 00:55:27;;;;;;;;;;;;;;;18.42;98.29;99929.69;4973178;28;1181;-65
2023/07/10 00:58:06;;;;;;;;;;;;;;;18.39;98.19;99930.56;4973230;28;1886;-64
2023/07/10 01:00:34;;;;;;;;;;;;;;;18.45;97.64;99929.53;4973253;28;827;-65
2023/07/10 01:03:01;;;;;;;;;;;;;;;18.51;96.80;99929.75;4973342;28;940;-65
2023/07/10 01:05:31;;;;;;;;;;;;;;;18.47;96.97;99926.28;4973309;28;867;-64
2023/07/10 01:07:59;;;;;;;;;;;;;;;18.38;97.08;99918.59;4973301;28;814;-65
2023/07/10 01:10:26;;;;;;;;;;;;;;;18.43;97.32;99934.78;4973106;28;965;-64
2023/07/10 01:12:53;;;;;;;;;;;;;;;18.44;97.50;99938.41;4972927;28;1278;-64
2023/07/10 01:15:20;;;;;;;;;;;;;;;18.41;98.29;99936.50;4973211;28;879;-64
2023/07/10 01:17:48;;;;;;;;;;;;;;;18.37;98.89;99939.44;4973158;28;1911;-65
2023/07/10 01:20:25;;;;;;;;;;;;;;;18.37;98.91;99933.84;4973155;28;831;-65
2023/07/10 01:22:52;;;;;;;;;;;;;;;18.36;98.94;99941.44;4973090;28;846;-64
2023/07/10 01:25:19;;;;;;;;;;;;;;;18.31;98.90;99942.03;4971804;28;871;-65
2023/07/10 01:27:46;;;;;;;;;;;;;;;18.29;99.03;99940.91;4973039;28;977;-65
2023/07/10 01:30:43;;;;;;;;;;;;;;;18.26;99.29;99941.81;4973161;28;839;-65
2023/07/10 01:33:28;;;;;;;;;;;;;;;18.23;99.35;99943.50;4959824;28;1412;-65
2023/07/10 01:35:56;;;;;;;;;;;;;;;18.22;99.76;99939.16;4972984;28;843;-64
2023/07/10 01:38:44;;;;;;;;;;;;;;;18.19;100.00;99942.06;4972941;28;1918;-64
2023/07/10 01:41:31;;;;;;;;;;;;;;;18.04;100.00;99945.31;4972740;28;1144;-65
2023/07/10 01:43:58;;;;;;;;;;;;;;;17.88;100.00;99943.47;4972931;28;964;-64
2023/07/10 01:46:26;;;;;;;;;;;;;;;17.82;100.00;99948.06;4972845;28;870;-64
2023/07/10 01:48:56;;;;;;;;;;;;;;;17.81;100.00;99949.22;4972845;28;823;-64
2023/07/10 01:51:23;;;;;;;;;;;;;;;17.80;100.00;99944.88;4972843;28;819;-64
2023/07/10 01:53:51;;;;;;;;;;;;;;;17.81;100.00;99945.66;4972726;28;836;-64
2023/07/10 01:56:20;;;;;;;;;;;;;;;17.82;100.00;99944.44;4972744;28;847;-64
2023/07/10 01:58:47;;;;;;;;;;;;;;;17.80;100.00;99949.69;4972664;28;1939;-64
2023/07/10 02:01:14;;;;;;;;;;;;;;;17.80;100.00;99950.47;4972811;28;866;-65
2023/07/10 02:03:42;;;;;;;;;;;;;;;17.78;100.00;99952.94;4972652;28;842;-65
2023/07/10 02:06:09;;;;;;;;;;;;;;;17.78;100.00;99950.16;4972738;28;859;-65
2023/07/10 02:08:37;;;;;;;;;;;;;;;17.74;100.00;99952.28;4976039;28;870;-65
2023/07/10 02:11:04;;;;;;;;;;;;;;;17.72;100.00;99944.31;4976683;28;1008;-64
2023/07/10 02:13:31;;;;;;;;;;;;;;;17.69;100.00;99948.03;4975993;28;1309;-64
2023/07/10 02:16:02;;;;;;;;;;;;;;;17.65;100.00;99955.75;4976287;28;846;-64
2023/07/10 02:18:29;;;;;;;;;;;;;;;17.59;100.00;99956.75;4976196;28;1966;-64
2023/07/10 02:20:57;;;;;;;;;;;;;;;17.51;100.00;99956.19;4976456;28;1331;-63
2023/07/10 02:23:24;;;;;;;;;;;;;;;17.46;100.00;99956.75;4976276;28;881;-64
2023/07/10 02:25:51;;;;;;;;;;;;;;;17.43;100.00;99964.00;4976152;28;835;-64
2023/07/10 02:28:18;;;;;;;;;;;;;;;17.39;100.00;99956.94;4976331;28;918;-64
2023/07/10 02:30:45;;;;;;;;;;;;;;;17.34;100.00;99966.66;4976109;28;850;-64
2023/07/10 02:33:13;;;;;;;;;;;;;;;17.31;100.00;99968.34;4976178;28;895;-65
2023/07/10 02:35:40;;;;;;;;;;;;;;;17.29;100.00;99970.03;4975872;28;808;-64
2023/07/10 02:38:08;;;;;;;;;;;;;;;17.30;100.00;99968.78;4975765;28;1898;-64
2023/07/10 02:40:35;;;;;;;;;;;;;;;17.30;100.00;99971.56;4975818;28;878;-64
2023/07/10 02:43:02;;;;;;;;;;;;;;;17.36;100.00;99978.19;4975875;28;943;-64
2023/07/10 02:45:29;;;;;;;;;;;;;;;17.40;100.00;99978.84;4975686;28;874;-64
2023/07/10 02:47:56;;;;;;;;;;;;;;;17.43;100.00;99969.59;4975719;28;827;-64
2023/07/10 02:50:23;;;;;;;;;;;;;;;17.47;100.00;99972.25;4975606;28;831;-64
2023/07/10 02:52:51;;;;;;;;;;;;;;;17.55;100.00;99970.81;4975611;28;854;-64
2023/07/10 02:55:18;;;;;;;;;;;;;;;17.63;100.00;99972.16;4975586;28;796;-64
2023/07/10 02:57:46;;;;;;;;;;;;;;;17.74;100.00;99981.00;4975291;28;1886;-64
2023/07/10 03:00:13;;;;;;;;;;;;;;;17.83;100.00;99976.78;4975601;28;841;-63
2023/07/10 03:02:41;;;;;;;;;;;;;;;17.91;100.00;99978.13;4975556;28;894;-64
2023/07/10 03:05:09;;;;;;;;;;;;;;;17.94;100.00;99977.22;4975640;28;815;-63
2023/07/10 03:07:37;;;;;;;;;;;;;;;17.99;100.00;99975.84;4975305;28;835;-63
2023/07/10 03:10:04;;;;;;;;;;;;;;;18.06;100.00;99979.22;4975305;28;814;-63
2023/07/10 03:12:31;;;;;;;;;;;;;;;18.11;100.00;99986.25;4975118;28;1335;-63
2023/07/10 03:14:58;;;;;;;;;;;;;;;18.09;100.00;99983.13;4975290;28;922;-63
2023/07/10 03:17:25;;;;;;;;;;;;;;;18.05;100.00;99986.06;4974854;28;842;-64
2023/07/10 03:19:52;;;;;;;;;;;;;;;18.08;100.00;99981.56;4975086;28;868;-64
2023/07/10 03:22:19;;;;;;;;;;;;;;;18.07;100.00;99980.78;4975021;28;831;-64
2023/07/10 03:24:46;;;;;;;;;;;;;;;18.08;100.00;99982.34;4974955;28;858;-64
2023/07/10 03:27:13;;;;;;;;;;;;;;;18.12;100.00;99980.22;4975020;28;893;-63
2023/07/10 03:29:40;;;;;;;;;;;;;;;18.17;100.00;99982.44;4974911;28;843;-64
2023/07/10 03:32:08;;;;;;;;;;;;;;;18.25;100.00;99977.38;4974868;28;910;-64
2023/07/10 03:34:34;;;;;;;;;;;;;;;18.34;100.00;99980.28;4974833;28;839;-64
2023/07/10 03:37:02;;;;;;;;;;;;;;;18.47;100.00;99983.03;4974794;28;923;-63
2023/07/10 03:39:30;;;;;;;;;;;;;;;18.64;100.00;99980.84;4974635;28;1888;-64
2023/07/10 03:41:57;;;;;;;;;;;;;;;18.86;100.00;99982.91;4974708;28;826;-64
2023/07/10 03:44:24;;;;;;;;;;;;;;;19.12;100.00;99986.38;4974662;28;835;-63
2023/07/10 03:46:51;;;;;;;;;;;;;;;19.40;100.00;99987.31;4974518;28;914;-63
2023/07/10 03:49:19;;;;;;;;;;;;;;;19.69;100.00;99992.56;4974908;28;811;-64
2023/07/10 03:51:46;;;;;;;;;;;;;;;19.96;100.00;99991.16;4974512;28;823;-63
2023/07/10 03:54:14;;;;;;;;;;;;;;;20.19;99.20;99992.63;4974497;28;845;-64
2023/07/10 03:56:42;;;;;;;;;;;;;;;20.33;97.71;99988.44;4974401;28;835;-64
2023/07/10 03:59:09;;;;;;;;;;;;;;;20.40;96.53;99994.53;4974243;28;1974;-64
2023/07/10 04:01:35;;;;;;;;;;;;;;;20.55;95.73;99991.13;4974551;28;835;-64
2023/07/10 04:04:02;;;;;;;;;;;;;;;20.63;95.05;99989.56;4974320;28;936;-64
2023/07/10 04:06:29;;;;;;;;;;;;;;;20.60;94.74;99994.09;4974192;28;811;-65
2023/07/10 04:08:58;;;;;;;;;;;;;;;20.69;95.04;99990.53;4974207;28;862;-65
2023/07/10 04:11:25;;;;;;;;;;;;;;;20.80;94.74;99987.25;4974110;28;1173;-65
2023/07/10 04:13:52;;;;;;;;;;;;;;;20.82;94.77;99993.16;4974329;28;854;-65
2023/07/10 04:16:20;;;;;;;;;;;;;;;20.74;95.06;100000.34;4974045;28;859;-65
2023/07/10 04:18:48;;;;;;;;;;;;;;;20.64;95.53;99996.78;4974257;28;1965;-65
2023/07/10 04:21:19;;;;;;;;;;;;;;;20.57;96.24;100000.66;4973869;28;898;-65
2023/07/10 04:23:47;;;;;;;;;;;;;;;20.56;96.23;100001.09;4973974;28;878;-64
2023/07/10 04:26:18;;;;;;;;;;;;;;;20.56;96.43;100015.91;4974227;28;1265;-65
2023/07/10 04:28:46;;;;;;;;;;;;;;;20.60;96.28;100010.94;4973784;28;820;-64
2023/07/10 04:31:13;;;;;;;;;;;;;;;20.60;96.64;100016.56;4973225;28;828;-64
2023/07/10 04:33:40;;;;;;;;;;;;;;;20.41;97.71;100017.75;4988653;28;2022;-64
2023/07/10 04:36:08;;;;;;;;;;;;;;;20.21;99.83;100014.63;4973882;28;823;-65
2023/07/10 04:38:35;;;;;;;;;;;;;;;20.11;100.00;100008.97;4973573;28;1948;-65
2023/07/10 04:41:04;;;;;;;;;;;;;;;20.00;100.00;100003.03;4973915;28;855;-64
2023/07/10 04:43:32;;;;;;;;;;;;;;;19.87;100.00;100010.78;4973864;28;827;-65
2023/07/10 04:46:00;;;;;;;;;;;;;;;19.82;100.00;100008.56;4988400;28;1666;-64
2023/07/10 04:48:27;;;;;;;;;;;;;;;19.88;100.00;100013.09;4973542;28;891;-64
2023/07/10 04:50:55;;;;;;;;;;;;;;;20.13;100.00;100005.72;4973555;28;818;-65
2023/07/10 04:53:23;;;;;;;;;;;;;;;20.37;100.00;100006.69;4973413;28;878;-65
2023/07/10 04:55:52;;;;;;;;;;;;;;;20.57;100.00;100002.69;4973658;28;917;-65
2023/07/10 04:58:19;;;;;;;;;;;;;;;20.64;100.00;100005.19;4973354;28;1941;-64
2023/07/10 05:00:55;;;;;;;;;;;;;;;20.89;100.00;100006.13;4973384;28;807;-65
2023/07/10 05:03:23;;;;;;;;;;;;;;;21.24;100.00;100006.56;4973435;28;854;-65
2023/07/10 05:05:58;;;;;;;;;;;;;;;21.39;100.00;100007.44;4973305;28;882;-65
2023/07/10 05:08:27;;;;;;;;;;;;;;;21.65;99.02;100009.13;4973312;28;866;-66
2023/07/10 05:10:54;;;;;;;;;;;;;;;21.91;97.32;100015.91;4973500;28;1032;-65
2023/07/10 05:13:27;;;;;;;;;;;;;;;22.08;94.66;100019.09;4973103;28;1052;-65
2023/07/10 05:15:55;;;;;;;;;;;;;;;22.38;92.37;100020.06;4973225;28;819;-65
2023/07/10 05:18:23;;;;;;;;;;;;;;;22.58;89.73;100013.81;4973178;28;1966;-66
2023/07/10 05:20:49;;;;;;;;;;;;;;;22.77;87.75;100017.28;4973247;28;910;-64
2023/07/10 05:23:16;;;;;;;;;;;;;;;22.95;85.99;100019.13;4973345;28;1155;-65
2023/07/10 05:26:01;;;;;;;;;;;;;;;23.17;85.36;100015.22;4973205;28;1204;-64
2023/07/10 05:28:28;;;;;;;;;;;;;;;23.19;83.51;100018.31;4973017;28;827;-64
2023/07/10 05:30:57;;;;;;;;;;;;;;;23.08;83.65;100006.84;4973099;28;831;-65
2023/07/10 05:33:25;;;;;;;;;;;;;;;22.92;84.32;100005.25;4972904;28;859;-64
2023/07/10 05:35:53;;;;;;;;;;;;;;;22.88;83.90;100008.25;4973039;28;819;-64
2023/07/10 05:38:22;;;;;;;;;;;;;;;22.71;83.12;100012.78;4971841;28;1937;-64
2023/07/10 05:40:49;;;;;;;;;;;;;;;22.79;82.54;100014.75;4972536;28;999;-64
2023/07/10 05:43:17;;;;;;;;;;;;;;;22.90;80.31;100007.78;4976870;28;935;-65
2023/07/10 05:45:44;;;;;;;;;;;;;;;23.08;79.87;100013.25;4976797;28;832;-65
2023/07/10 05:48:12;;;;;;;;;;;;;;;24.01;76.31;100018.69;4976797;28;854;-64
2023/07/10 05:50:38;;;;;;;;;;;;;;;24.84;72.61;100018.25;4976697;28;839;-64
2023/07/10 05:53:06;;;;;;;;;;;;;;;25.28;67.46;100022.06;4976993;28;827;-65
2023/07/10 05:55:33;;;;;;;;;;;;;;;25.09;69.01;100015.94;4976645;28;866;-65
2023/07/10 05:58:00;;;;;;;;;;;;;;;25.14;68.84;100020.88;4976623;28;1878;-65
2023/07/10 06:00:27;;;;;;;;;;;;;;;25.44;68.17;100021.44;4976562;28;889;-65
2023/07/10 06:02:55;;;;;;;;;;;;;;;25.84;65.85;100014.06;4976517;28;898;-65
2023/07/10 06:05:22;;;;;;;;;;;;;;;26.06;64.50;100013.44;4976409;28;808;-65
2023/07/10 06:07:49;;;;;;;;;;;;;;;26.02;64.56;100018.56;4976380;28;906;-65
2023/07/10 06:10:16;;;;;;;;;;;;;;;25.93;64.90;100020.84;4976400;28;823;-65
2023/07/10 06:12:44;;;;;;;;;;;;;;;25.85;64.75;100015.59;4976312;28;1191;-65
2023/07/10 06:15:11;;;;;;;;;;;;;;;25.71;65.85;100015.75;4976251;28;835;-65
2023/07/10 06:17:38;;;;;;;;;;;;;;;26.15;65.45;100006.81;4976229;28;1934;-65
2023/07/10 06:20:05;;;;;;;;;;;;;;;27.35;60.23;100009.56;4976213;28;807;-64
2023/07/10 06:22:32;;;;;;;;;;;;;;;28.06;56.28;100003.63;4976017;28;863;-65
2023/07/10 06:24:59;;;;;;;;;;;;;;;28.98;52.42;99997.06;4976169;28;949;-64
2023/07/10 06:27:26;;;;;;;;;;;;;;;30.05;49.63;99996.22;4975952;28;819;-64
2023/07/10 06:29:54;;;;;;;;;;;;;;;30.33;47.87;100009.41;4976124;28;854;-65
2023/07/10 06:32:21;;;;;;;;;;;;;;;29.43;50.10;99993.16;4976206;28;886;-65
2023/07/10 06:34:48;;;;;;;;;;;;;;;28.75;51.62;99993.56;4975972;28;815;-65
2023/07/10 06:37:15;;;;;;;;;;;;;;;28.68;51.90;99994.91;4975889;28;886;-65
2023/07/10 06:39:42;;;;;;;;;;;;;;;29.25;49.21;99986.03;4975906;28;1898;-64
2023/07/10 06:42:09;;;;;;;;;;;;;;;30.73;45.48;99989.72;4976020;28;796;-65
2023/07/10 06:44:36;;;;;;;;;;;;;;;32.32;41.70;99978.00;4975765;28;874;-65
2023/07/10 06:47:03;;;;;;;;;;;;;;;33.43;39.16;99983.88;4975701;28;878;-64
2023/07/10 06:49:30;;;;;;;;;;;;;;;33.72;37.36;99981.09;4975700;28;940;-65
2023/07/10 06:51:57;;;;;;;;;;;;;;;33.92;35.86;99983.13;4975520;28;811;-64
2023/07/10 06:54:23;;;;;;;;;;;;;;;34.00;35.90;99985.28;4975008;28;834;-64
2023/07/10 06:56:50;;;;;;;;;;;;;;;33.53;37.02;99984.91;4975607;28;926;-65
2023/07/10 06:59:21;;;;;;;;;;;;;;;32.87;38.10;99982.31;4975522;28;1898;-65
2023/07/10 07:01:48;;;;;;;;;;;;;;;33.42;36.82;99993.81;4975798;28;851;-65
2023/07/10 07:04:14;;;;;;;;;;;;;;;34.53;35.29;99993.47;4974107;28;1319;-65
2023/07/10 07:06:40;;;;;;;;;;;;;;;34.90;33.79;99997.81;4975338;28;918;-65
2023/07/10 07:09:07;;;;;;;;;;;;;;;34.35;35.04;99993.19;4975255;28;857;-66
2023/07/10 07:11:33;;;;;;;;;;;;;;;32.89;36.62;99997.63;4975150;28;1356;-65
2023/07/10 07:14:00;;;;;;;;;;;;;;;31.87;38.82;99998.84;4992736;28;1290;-66
2023/07/10 07:16:26;;;;;;;;;;;;;;;31.77;39.59;100008.41;4994398;28;854;-66
2023/07/10 07:18:53;;;;;;;;;;;;;;;31.66;39.29;99995.84;4994548;28;1922;-67
2023/07/10 07:21:20;;;;;;;;;;;;;;;31.91;39.53;100001.41;4994610;28;886;-68
2023/07/10 07:23:47;;;;;;;;;;;;;;;31.89;39.25;100001.16;4994528;28;815;-68
2023/07/10 07:26:14;;;;;;;;;;;;;;;31.71;39.51;100000.72;4994432;28;859;-68
2023/07/10 07:28:40;;;;;;;;;;;;;;;31.92;38.20;100002.91;4994430;28;807;-67
2023/07/10 07:31:07;;;;;;;;;;;;;;;33.01;37.04;99991.63;4994263;28;867;-68
2023/07/10 07:33:34;;;;;;;;;;;;;;;33.13;36.13;99995.78;4994326;28;890;-67
2023/07/10 07:36:02;;;;;;;;;;;;;;;33.34;35.23;99990.84;4993122;28;1396;-68
2023/07/10 07:38:29;;;;;;;;;;;;;;;34.61;33.46;99988.53;4994013;28;1910;-68
2023/07/10 07:40:59;;;;;;;;;;;;;;;35.15;32.23;99994.47;4994493;28;849;-69
2023/07/10 07:43:28;;;;;;;;;;;;;;;34.96;32.00;99991.91;4994109;28;830;-68
2023/07/10 07:45:56;;;;;;;;;;;;;;;34.69;32.06;99982.81;4994069;28;858;-68
2023/07/10 07:48:23;;;;;;;;;;;;;;;35.14;31.09;99992.94;4994164;28;815;-68
2023/07/10 07:50:57;;;;;;;;;;;;;;;35.96;29.07;99983.41;4993889;28;863;-69
2023/07/10 07:53:25;;;;;;;;;;;;;;;35.84;29.08;99983.00;4993927;28;811;-69
2023/07/10 07:55:52;;;;;;;;;;;;;;;35.59;30.33;99979.94;4993953;28;847;-69
2023/07/10 07:58:19;;;;;;;;;;;;;;;37.21;28.24;99979.47;4992391;28;1961;-68
2023/07/10 08:00:46;;;;;;;;;;;;;;;37.17;27.51;99979.88;4993942;28;847;-66
2023/07/10 08:03:13;;;;;;;;;;;;;;;35.30;28.78;99976.50;4993779;28;862;-67
2023/07/10 08:05:40;;;;;;;;;;;;;;;34.12;30.12;99980.81;4991853;28;1324;-67
2023/07/10 08:08:08;;;;;;;;;;;;;;;34.80;29.36;99968.13;4993920;28;1292;-68
2023/07/10 08:10:36;;;;;;;;;;;;;;;35.43;28.39;99966.94;4993645;28;1244;-68
2023/07/10 08:13:04;;;;;;;;;;;;;;;35.85;27.84;99972.28;4993509;28;1238;-68
2023/07/10 08:15:31;;;;;;;;;;;;;;;36.01;27.93;99970.91;4993707;28;871;-69
2023/07/10 08:17:58;;;;;;;;;;;;;;;36.61;26.78;99965.59;4993361;28;1914;-67
2023/07/10 08:20:25;;;;;;;;;;;;;;;36.75;27.08;99968.97;4993481;28;811;-68
2023/07/10 08:22:52;;;;;;;;;;;;;;;35.31;28.03;99958.66;4993368;28;874;-69
2023/07/10 08:25:19;;;;;;;;;;;;;;;35.70;28.33;99929.94;4993341;28;953;-70
2023/07/10 08:27:46;;;;;;;;;;;;;;;35.25;27.96;99957.31;4993333;28;875;-67
2023/07/10 08:30:13;;;;;;;;;;;;;;;34.96;28.52;99949.59;4993224;28;870;-67
2023/07/10 08:32:40;;;;;;;;;;;;;;;34.87;28.38;99927.19;4993619;28;856;-67
2023/07/10 08:35:07;;;;;;;;;;;;;;;34.00;29.24;99920.13;4993480;28;842;-67
2023/07/10 08:37:36;;;;;;;;;;;;;;;32.73;31.12;99938.66;4993185;28;826;-68
2023/07/10 08:40:04;;;;;;;;;;;;;;;31.93;33.14;99955.88;4992953;28;1870;-68
2023/07/10 08:42:32;;;;;;;;;;;;;;;31.58;33.59;99943.56;4993106;28;811;-68
2023/07/10 08:44:59;;;;;;;;;;;;;;;31.30;33.99;99949.72;4992910;28;886;-68
2023/07/10 08:47:34;;;;;;;;;;;;;;;32.79;32.71;99942.16;4993278;28;838;-69
2023/07/10 08:50:12;;;;;;;;;;;;;;;35.20;29.64;99941.06;4992879;28;871;-70
2023/07/10 08:52:49;;;;;;;;;;;;;;;37.09;26.82;99942.50;4992803;28;819;-69
2023/07/10 08:55:27;;;;;;;;;;;;;;;38.28;25.45;99928.69;4992923;28;823;-69
2023/07/10 08:57:58;;;;;;;;;;;;;;;38.36;25.19;99930.13;4992751;28;1953;-67
2023/07/10 09:00:26;;;;;;;;;;;;;;;38.47;25.33;99934.59;4993040;28;886;-66
2023/07/10 09:03:05;;;;;;;;;;;;;;;38.58;24.86;99931.22;4992973;28;838;-66
2023/07/10 09:05:34;;;;;;;;;;;;;;;38.66;23.75;99928.22;4992873;28;784;-64
2023/07/10 09:08:02;;;;;;;;;;;;;;;36.67;25.28;99931.59;4992666;28;904;-68
2023/07/10 09:10:52;;;;;;;;;;;;;;;36.20;26.16;99938.88;4992498;28;996;-67
2023/07/10 09:13:24;;;;;;;;;;;;;;;36.76;25.80;99930.19;4984641;28;1465;-68
2023/07/10 09:15:53;;;;;;;;;;;;;;;37.50;25.93;99925.81;4992353;28;799;-68
2023/07/10 09:18:25;;;;;;;;;;;;;;;35.76;26.94;99930.50;4992378;28;1981;-68
2023/07/10 09:20:57;;;;;;;;;;;;;;;34.11;29.32;99930.50;4992544;28;854;-68
2023/07/10 09:23:26;;;;;;;;;;;;;;;34.52;29.51;99934.53;4992609;28;870;-68
2023/07/10 09:26:21;;;;;;;;;;;;;;;35.62;28.58;99926.31;4992479;28;940;-67
2023/07/10 09:29:06;;;;;;;;;;;;;;;36.78;27.51;99913.84;4990272;28;1185;-68
2023/07/10 09:31:52;;;;;;;;;;;;;;;37.27;26.64;99917.38;4992358;28;933;-66
2023/07/10 09:34:27;;;;;;;;;;;;;;;36.47;26.92;99919.00;4992480;28;819;-67
2023/07/10 09:36:55;;;;;;;;;;;;;;;36.50;27.39;99914.94;4991103;28;827;-67
2023/07/10 09:39:24;;;;;;;;;;;;;;;36.42;26.92;99917.09;4992527;28;1890;-66
2023/07/10 10:10:42;;;;;;;;;;;;;;;34.21;28.91;99894.25;5923058;23;2018;-68
2023/07/10 10:13:27;;;;;;;;;;;;;;;33.90;28.93;99890.44;4989950;28;823;-69
2023/07/10 10:16:03;;;;;;;;;;;;;;;33.61;29.09;99889.66;4992138;28;838;-69
2023/07/10 10:19:04;;;;;;;;;;;;;;;33.90;28.15;99894.06;4992018;28;1903;-71
2023/07/10 10:21:32;;;;;;;;;;;;;;;33.80;28.58;99884.47;4932137;29;1280;-71
2023/07/10 10:24:04;;;;;;;;;;;;;;;33.61;28.71;99879.00;4932227;29;928;-67
2023/07/10 10:26:37;;;;;;;;;;;;;;;33.82;28.46;99869.56;4932129;29;870;-72
2023/07/10 10:29:12;;;;;;;;;;;;;;;33.49;28.24;99872.00;4934716;29;948;-69
2023/07/10 10:31:41;;;;;;;;;;;;;;;33.54;28.39;99863.28;4935566;29;905;-68
2023/07/10 10:34:14;;;;;;;;;;;;;;;33.91;28.29;99858.34;4919491;29;1324;-70
2023/07/10 10:37:03;;;;;;;;;;;;;;;34.33;28.05;99865.97;4935496;29;934;-72
2023/07/10 10:39:33;;;;;;;;;;;;;;;34.50;27.35;99846.16;4935339;29;1961;-69
2023/07/10 10:42:03;;;;;;;;;;;;;;;34.64;26.91;99849.66;4935394;29;1262;-72
2023/07/10 10:44:30;;;;;;;;;;;;;;;35.05;27.41;99862.13;4935300;29;867;-70
2023/07/10 10:47:05;;;;;;;;;;;;;;;34.37;28.04;99843.44;4919406;29;1452;-67
2023/07/10 10:49:50;;;;;;;;;;;;;;;33.30;28.59;99855.81;4935262;29;985;-64
2023/07/10 10:52:23;;;;;;;;;;;;;;;33.05;29.66;99846.84;4935170;29;887;-64
2023/07/10 10:54:53;;;;;;;;;;;;;;;34.06;29.36;99839.69;4949608;28;910;-65
2023/07/10 10:57:26;;;;;;;;;;;;;;;34.89;28.84;99834.75;4994923;28;875;-65
2023/07/10 10:59:53;;;;;;;;;;;;;;;34.92;27.93;99842.22;4995146;28;1949;-65
2023/07/10 11:02:38;;;;;;;;;;;;;;;34.85;27.74;99845.84;4995186;28;826;-64
2023/07/10 11:05:31;;;;;;;;;;;;;;;35.00;27.65;99833.63;4994820;28;767;-64
2023/07/10 11:08:00;;;;;;;;;;;;;;;35.82;27.21;99823.94;4992392;28;1061;-65
2023/07/10 11:10:31;;;;;;;;;;;;;;;36.16;26.82;99820.56;4995057;28;993;-65
2023/07/10 11:12:58;;;;;;;;;;;;;;;36.23;26.78;99819.75;4994805;28;870;-66
2023/07/10 11:15:26;;;;;;;;;;;;;;;36.15;26.98;99816.16;4994657;28;961;-66
2023/07/10 11:17:53;;;;;;;;;;;;;;;35.66;27.09;99817.50;4994564;28;1981;-67
2023/07/10 11:20:21;;;;;;;;;;;;;;;35.55;27.80;99805.03;4994515;28;866;-65
2023/07/10 11:22:51;;;;;;;;;;;;;;;36.07;27.06;99801.03;4994569;28;862;-65
2023/07/10 11:25:35;;;;;;;;;;;;;;;36.70;27.13;99802.97;4994493;28;819;-65
2023/07/10 11:28:20;;;;;;;;;;;;;;;37.11;25.68;99804.41;4994508;28;946;-66
2023/07/10 11:30:49;;;;;;;;;;;;;;;36.72;24.69;99803.16;4994485;28;788;-66
2023/07/10 11:33:18;;;;;;;;;;;;;;;36.66;25.76;99793.97;4994319;28;807;-66
2023/07/10 11:36:03;;;;;;;;;;;;;;;37.07;25.14;99789.63;4994250;28;823;-66
2023/07/10 11:38:30;;;;;;;;;;;;;;;36.80;25.21;99798.09;4993936;28;1953;-65
2023/07/10 11:41:17;;;;;;;;;;;;;;;36.75;25.71;99797.00;4994141;28;815;-65
2023/07/10 11:43:51;;;;;;;;;;;;;;;37.22;24.88;99799.50;4993937;28;1075;-66
2023/07/10 11:46:27;;;;;;;;;;;;;;;37.48;24.71;99798.81;4992861;28;1335;-64
2023/07/10 11:49:01;;;;;;;;;;;;;;;37.15;24.32;99795.31;4994446;28;862;-66
2023/07/10 11:51:34;;;;;;;;;;;;;;;37.40;24.00;99792.38;4992658;28;1241;-65
2023/07/10 11:54:13;;;;;;;;;;;;;;;38.36;23.36;99782.16;4993925;28;938;-65
2023/07/10 11:56:59;;;;;;;;;;;;;;;38.56;22.34;99783.81;4994008;28;874;-66
2023/07/10 11:59:26;;;;;;;;;;;;;;;39.25;21.84;99784.78;4993961;28;1945;-65
2023/07/10 12:01:53;;;;;;;;;;;;;;;39.91;21.47;99781.78;4993820;28;814;-66
2023/07/10 12:04:22;;;;;;;;;;;;;;;40.00;21.24;99783.13;4993790;28;864;-66
2023/07/10 12:06:49;;;;;;;;;;;;;;;37.38;23.69;99787.22;4993796;28;852;-65
2023/07/10 12:09:16;;;;;;;;;;;;;;;35.51;25.04;99773.03;4993571;28;811;-64
2023/07/10 12:11:41;;;;;;;;;;;;;;;36.56;24.42;99767.94;4993635;28;1201;-65
2023/07/10 12:14:13;;;;;;;;;;;;;;;38.33;23.29;99769.72;4993805;28;826;-66
2023/07/10 12:16:49;;;;;;;;;;;;;;;39.02;22.09;99759.19;4993567;28;842;-65
2023/07/10 12:19:21;;;;;;;;;;;;;;;38.79;21.68;99753.78;4993470;28;1914;-65
2023/07/10 12:21:48;;;;;;;;;;;;;;;39.04;21.92;99747.03;4993567;28;814;-65
2023/07/10 12:24:16;;;;;;;;;;;;;;;39.71;21.08;99746.31;4992042;28;1303;-64
2023/07/10 12:26:42;;;;;;;;;;;;;;;40.38;20.83;99733.06;4993425;28;847;-66
2023/07/10 12:29:14;;;;;;;;;;;;;;;40.31;20.13;99742.69;4993339;28;814;-66
2023/07/10 12:31:41;;;;;;;;;;;;;;;39.78;20.06;99748.28;4993536;28;815;-66
2023/07/10 12:34:19;;;;;;;;;;;;;;;40.01;20.03;99762.25;4993329;28;940;-63
2023/07/10 12:36:49;;;;;;;;;;;;;;;39.74;19.52;99750.88;4993472;28;851;-65
2023/07/10 12:39:15;;;;;;;;;;;;;;;39.85;19.58;99757.44;4993190;28;1946;-64
2023/07/10 12:41:46;;;;;;;;;;;;;;;39.59;20.56;99754.84;4993265;28;1206;-66
2023/07/10 12:44:23;;;;;;;;;;;;;;;38.95;21.35;99752.19;4993179;28;994;-65
2023/07/10 12:46:56;;;;;;;;;;;;;;;39.14;21.38;99754.34;4992933;28;894;-65
2023/07/10 12:49:24;;;;;;;;;;;;;;;39.56;21.52;99753.19;4993068;28;815;-65
2023/07/10 12:51:51;;;;;;;;;;;;;;;39.75;21.22;99745.84;4992764;28;1189;-65
2023/07/10 12:54:25;;;;;;;;;;;;;;;40.38;20.49;99743.88;4992949;28;816;-64
2023/07/10 12:56:55;;;;;;;;;;;;;;;39.81;20.53;99749.16;4992833;28;850;-65
2023/07/10 12:59:32;;;;;;;;;;;;;;;39.42;20.82;99749.22;4992751;28;1886;-64
2023/07/10 13:02:01;;;;;;;;;;;;;;;38.82;21.25;99740.28;4992834;28;873;-64
2023/07/10 13:04:31;;;;;;;;;;;;;;;38.28;21.65;99741.13;4992973;28;1225;-64
2023/07/10 13:07:17;;;;;;;;;;;;;;;38.31;22.39;99748.59;4992815;28;857;-64
2023/07/10 13:10:03;;;;;;;;;;;;;;;38.40;22.29;99748.63;4992811;28;934;-66
2023/07/10 13:12:31;;;;;;;;;;;;;;;38.39;22.11;99734.81;4992605;28;1248;-64
2023/07/10 13:14:59;;;;;;;;;;;;;;;38.26;22.46;99733.06;4993155;28;817;-64
2023/07/10 13:17:27;;;;;;;;;;;;;;;37.74;23.48;99736.09;4992875;28;819;-64
2023/07/10 13:19:54;;;;;;;;;;;;;;;37.52;23.71;99743.66;4992684;28;1914;-64
2023/07/10 13:22:21;;;;;;;;;;;;;;;37.37;23.37;99733.06;4992672;28;803;-64
2023/07/10 13:24:49;;;;;;;;;;;;;;;37.38;23.83;99732.47;4992526;28;831;-65
2023/07/10 13:27:20;;;;;;;;;;;;;;;37.53;23.37;99727.84;4992407;28;847;-65
2023/07/10 13:29:47;;;;;;;;;;;;;;;37.22;23.61;99733.22;4992453;28;889;-64
2023/07/10 13:32:15;;;;;;;;;;;;;;;36.59;25.24;99732.22;4992660;28;882;-63
2023/07/10 13:34:42;;;;;;;;;;;;;;;35.77;25.22;99731.56;4992768;28;807;-64
2023/07/10 13:37:22;;;;;;;;;;;;;;;35.56;25.72;99728.19;4992275;28;904;-64
2023/07/10 13:39:49;;;;;;;;;;;;;;;35.60;25.65;99728.56;4992566;28;1953;-64
2023/07/10 13:42:19;;;;;;;;;;;;;;;35.36;25.02;99733.63;4992870;28;811;-64